Bueche, Louisiana
Current Conditions -  °F | °C
As of 6:53 AM on Friday 28 Nov 2014 (Local Time) from KBTR Reporting Station
Clear Clear  
Wind Chill: 30°   Ceiling: Unl
Heat Index: 34°   Visibility: 10mi
Dew Point: 31°   Wind: 5mph
Humidity: 89%   Direction: 90°E
Pressure: 30.43"   Gusts: NA
Location:  30.57°N, 91.35°W
Report Text: KBTR 281253Z 09004KT 10SM CLR 01/M01 A3043 RMK AO2 SLP303 T00111006
Loading
Personal Weather Stations






























Interactive Weather Map New forecast layout! Learn more

10-Day Weather Forecast

Advertisements
Track Severe Weather on mobile